createdAt,value
2023-03-21T00:03:53.637Z,22.70
2023-03-21T00:09:20.486Z,21.50
2023-03-21T00:15:24.907Z,22.90
2023-03-21T00:33:12.092Z,21.70
2023-03-21T00:38:32.893Z,22.70
2023-03-21T00:44:05.692Z,23.40
2023-03-21T00:49:52.322Z,21.80
2023-03-21T00:55:24.887Z,22.80
2023-03-21T01:00:33.681Z,25.10
2023-03-21T01:06:07.394Z,22.60
2023-03-21T01:11:25.259Z,21.30
2023-03-21T01:16:38.049Z,20.30
2023-03-21T01:22:02.043Z,20.50
2023-03-21T01:27:22.570Z,19.10
2023-03-21T01:32:48.733Z,19.40
2023-03-21T01:37:54.692Z,20.80
2023-03-21T01:43:03.034Z,22.50
2023-03-21T01:48:06.792Z,18.70
2023-03-21T01:53:22.512Z,17.90
2023-03-21T01:58:26.653Z,20.60
2023-03-21T02:03:55.555Z,22.20
2023-03-21T02:09:26.300Z,19.20
2023-03-21T02:14:33.910Z,19.60
2023-03-21T02:20:16.399Z,20.30
2023-03-21T02:26:41.155Z,18.30
2023-03-21T02:32:15.170Z,18.50
2023-03-21T02:38:15.192Z,18.60
2023-03-21T02:44:06.603Z,19.20
2023-03-21T02:49:38.192Z,20.80
2023-03-21T02:54:57.104Z,21.90
2023-03-21T03:00:16.262Z,25.70
2023-03-21T03:06:15.445Z,27.30
2023-03-21T03:11:28.946Z,26.40
2023-03-21T03:16:47.192Z,23.40
2023-03-21T03:22:08.825Z,19.90
2023-03-21T03:27:25.046Z,19.30
2023-03-21T03:33:08.534Z,19.70
2023-03-21T03:38:14.472Z,21.20
2023-03-21T03:43:52.400Z,18.90
2023-03-21T03:49:14.002Z,17.90
2023-03-21T03:54:37.227Z,17.90
2023-03-21T03:59:52.819Z,18.80
2023-03-21T04:04:59.686Z,15.90
2023-03-21T04:10:09.353Z,15.90
2023-03-21T04:15:22.356Z,16.70
2023-03-21T04:20:36.897Z,17.60
2023-03-21T04:26:04.598Z,17.40
2023-03-21T04:31:53.587Z,18.90
2023-03-21T04:37:44.239Z,18.50
2023-03-21T04:43:52.493Z,18.70
2023-03-21T04:49:39.082Z,18.80
2023-03-21T04:55:33.337Z,19.30
2023-03-21T05:00:57.463Z,19.30
2023-03-21T05:06:11.928Z,18.30
2023-03-21T05:11:38.068Z,18.70
2023-03-21T05:16:45.231Z,17.70
2023-03-21T05:22:19.450Z,17.30
2023-03-21T05:27:36.641Z,17.30
2023-03-21T05:33:01.016Z,17.60
2023-03-21T05:38:18.671Z,17.60
2023-03-21T05:43:27.652Z,17.80
2023-03-21T05:49:00.564Z,17.20
2023-03-21T05:54:04.840Z,20.00
2023-03-21T05:59:08.612Z,20.60
2023-03-21T06:04:16.579Z,21.90
2023-03-21T06:09:37.181Z,19.40
2023-03-21T06:14:43.482Z,18.10
2023-03-21T06:20:01.212Z,17.50
2023-03-21T06:25:30.555Z,15.80
2023-03-21T06:30:37.542Z,15.70
2023-03-21T06:35:59.108Z,17.00
2023-03-21T06:41:33.011Z,16.80
2023-03-21T06:47:02.254Z,15.80
2023-03-21T06:52:06.301Z,15.00
2023-03-21T06:57:11.718Z,15.00
2023-03-21T07:02:36.190Z,14.30
2023-03-21T07:07:55.612Z,13.70
2023-03-21T07:13:04.289Z,14.90
2023-03-21T07:18:19.031Z,14.60
2023-03-21T07:23:38.180Z,14.40
2023-03-21T07:28:53.004Z,14.10
2023-03-21T07:34:39.468Z,12.80
2023-03-21T07:40:10.365Z,12.00
2023-03-21T07:45:54.923Z,11.50
2023-03-21T08:01:45.549Z,10.60
2023-03-21T08:06:52.104Z,11.70
2023-03-21T08:12:01.745Z,11.20
2023-03-21T08:17:15.486Z,10.10
2023-03-21T08:22:47.911Z,10.50
2023-03-21T08:28:34.186Z,9.80
2023-03-21T08:33:54.501Z,10.60
2023-03-21T08:39:07.103Z,8.80
2023-03-21T08:44:25.457Z,8.80
2023-03-21T08:49:49.955Z,9.10
2023-03-21T08:54:56.499Z,8.20
2023-03-21T09:00:23.383Z,9.20
2023-03-21T09:05:38.112Z,9.20
2023-03-21T09:11:04.453Z,10.30
2023-03-21T09:16:11.570Z,8.70
2023-03-21T09:21:20.459Z,8.70
2023-03-21T09:26:57.529Z,8.30
2023-03-21T09:32:32.499Z,9.00
2023-03-21T09:37:42.420Z,8.80
2023-03-21T09:43:28.974Z,7.70
2023-03-21T09:49:17.546Z,7.40
2023-03-21T09:54:34.938Z,7.70
2023-03-21T09:59:43.593Z,6.70
2023-03-21T10:04:47.220Z,6.40
2023-03-21T10:09:52.694Z,7.10
2023-03-21T10:14:59.118Z,8.10
2023-03-21T10:20:35.853Z,7.50
2023-03-21T10:26:21.706Z,7.90
2023-03-21T10:31:36.166Z,7.00
2023-03-21T10:36:53.348Z,6.00
2023-03-21T10:42:07.335Z,6.80
2023-03-21T10:47:10.742Z,6.70
2023-03-21T10:52:36.744Z,7.10
2023-03-21T10:58:07.973Z,7.50
2023-03-21T11:03:48.457Z,7.10
2023-03-21T11:09:04.258Z,7.10
2023-03-21T11:14:24.198Z,8.10
2023-03-21T11:19:33.498Z,7.50
2023-03-21T11:24:51.407Z,5.60
2023-03-21T11:30:40.058Z,6.00
2023-03-21T11:36:17.982Z,5.40
2023-03-21T11:41:56.607Z,5.90
2023-03-21T11:47:11.627Z,5.30
2023-03-21T11:52:51.581Z,5.80
2023-03-21T11:58:14.892Z,6.80
2023-03-21T12:03:53.016Z,6.70
2023-03-21T12:09:45.397Z,6.30
2023-03-21T12:15:23.573Z,5.90
2023-03-21T12:21:01.986Z,5.90
2023-03-21T12:26:31.523Z,5.20
2023-03-21T12:32:04.423Z,5.40
2023-03-21T12:37:28.373Z,5.60
2023-03-21T12:43:12.535Z,5.70
2023-03-21T12:49:15.620Z,5.60
2023-03-21T12:54:58.602Z,5.40
2023-03-21T13:00:52.096Z,4.90
2023-03-21T13:06:25.540Z,4.20
2023-03-21T13:11:34.070Z,6.60
2023-03-21T13:17:19.556Z,6.70
2023-03-21T13:22:29.000Z,7.00
2023-03-21T13:27:46.192Z,6.50
2023-03-21T13:32:51.625Z,5.90
2023-03-21T13:38:14.919Z,5.40
2023-03-21T13:43:56.876Z,5.80
2023-03-21T13:49:26.784Z,5.60
2023-03-21T13:54:51.168Z,6.10
2023-03-21T14:00:29.471Z,6.40
2023-03-21T14:05:35.494Z,4.80
2023-03-21T14:10:42.630Z,3.90
2023-03-21T14:15:58.282Z,4.00
2023-03-21T14:21:28.169Z,4.00
2023-03-21T14:26:38.053Z,4.30
2023-03-21T14:31:42.159Z,4.10
2023-03-21T14:36:56.910Z,4.50
2023-03-21T14:42:15.792Z,4.60
2023-03-21T14:47:41.319Z,4.80
2023-03-21T14:52:44.852Z,4.90
2023-03-21T14:57:52.149Z,4.60
2023-03-21T15:02:59.365Z,4.60
2023-03-21T15:08:29.102Z,4.70
2023-03-21T15:14:08.498Z,4.90
2023-03-21T15:19:47.705Z,4.70
2023-03-21T15:25:08.492Z,4.40
2023-03-21T15:30:51.145Z,5.30
2023-03-21T15:36:20.723Z,5.70
2023-03-21T15:41:30.166Z,5.90
2023-03-21T15:46:49.152Z,5.40
2023-03-21T15:52:23.687Z,5.60
2023-03-21T15:57:50.312Z,5.50
2023-03-21T16:03:05.059Z,6.30
2023-03-21T16:08:32.804Z,6.00
2023-03-21T16:13:39.188Z,6.30
2023-03-21T16:18:45.957Z,7.40
2023-03-21T16:24:50.083Z,7.50
2023-03-21T16:29:56.324Z,12.20
2023-03-21T16:35:01.460Z,18.40
2023-03-21T16:40:19.846Z,19.60
2023-03-21T16:45:33.611Z,11.80
2023-03-21T16:50:46.396Z,15.20
2023-03-21T17:01:19.387Z,15.20
2023-03-21T17:06:25.612Z,14.60
2023-03-21T17:11:36.383Z,14.30
2023-03-21T17:16:43.065Z,14.20
2023-03-21T17:21:47.333Z,13.30
2023-03-21T17:26:54.128Z,13.70
2023-03-21T17:32:00.523Z,15.50
2023-03-21T17:37:09.879Z,15.20
2023-03-21T17:42:20.857Z,14.90
2023-03-21T17:47:42.775Z,17.40
2023-03-21T17:52:50.853Z,16.50
2023-03-21T17:58:06.369Z,16.70
2023-03-21T18:03:13.523Z,19.00
2023-03-21T18:08:28.693Z,22.60
2023-03-21T18:13:34.851Z,18.20
2023-03-21T18:18:53.748Z,19.90
2023-03-21T18:25:01.042Z,20.50
2023-03-21T18:30:36.114Z,22.00
2023-03-21T18:36:07.539Z,20.50
2023-03-21T18:41:15.340Z,19.90
2023-03-21T18:46:26.764Z,22.30
2023-03-21T18:51:36.517Z,24.20
2023-03-21T19:02:44.008Z,31.00
2023-03-21T19:08:09.589Z,32.20
2023-03-21T19:13:19.665Z,23.70
2023-03-21T19:19:15.894Z,21.30
2023-03-21T19:24:51.146Z,20.20
2023-03-21T19:30:16.164Z,17.20
2023-03-21T19:35:42.046Z,17.80
2023-03-21T19:41:20.216Z,19.30
2023-03-21T19:46:48.620Z,24.50
2023-03-21T19:51:52.394Z,24.60
2023-03-21T19:57:02.012Z,23.70
2023-03-21T20:02:34.490Z,20.30
2023-03-21T20:08:03.477Z,19.00
2023-03-21T20:13:07.404Z,18.70
2023-03-21T20:19:01.206Z,19.40
2023-03-21T20:24:16.632Z,21.00
2023-03-21T20:36:28.597Z,23.30
2023-03-21T20:41:01.739Z,22.30
2023-03-21T20:46:10.669Z,24.40
2023-03-21T20:57:29.008Z,33.90
2023-03-21T21:02:35.895Z,33.10
2023-03-21T21:08:47.411Z,31.50
2023-03-21T21:14:16.752Z,31.50
2023-03-21T21:19:23.722Z,32.70
2023-03-21T21:25:20.094Z,31.80
2023-03-21T21:31:34.729Z,30.20
2023-03-21T21:36:51.321Z,31.90
2023-03-21T21:42:48.558Z,32.00
2023-03-21T21:48:39.898Z,33.10
2023-03-21T21:54:56.643Z,34.00
2023-03-21T22:00:27.415Z,37.10
2023-03-21T22:06:05.753Z,34.20
2023-03-21T22:11:19.417Z,36.20
2023-03-21T22:16:37.720Z,35.90
2023-03-21T22:22:04.383Z,34.90
2023-03-21T22:27:17.624Z,34.40
2023-03-21T22:32:32.540Z,30.80
2023-03-21T22:38:12.506Z,29.50
2023-03-21T22:43:55.368Z,28.70
2023-03-21T22:50:19.711Z,29.90
2023-03-21T22:56:23.847Z,29.50
2023-03-21T23:01:39.969Z,34.50
2023-03-21T23:06:43.919Z,37.80
2023-03-21T23:11:49.704Z,37.00
2023-03-21T23:17:10.283Z,35.30
2023-03-21T23:22:37.561Z,34.90
2023-03-21T23:29:01.968Z,35.40
2023-03-21T23:34:38.356Z,36.20
2023-03-21T23:40:08.993Z,34.30
2023-03-21T23:45:44.231Z,37.10
2023-03-21T23:50:58.252Z,37.70
2023-03-21T23:56:11.475Z,35.10
